sensor_id;sensor_type;location;lat;lon;timestamp;temperature;humidity
52963;DHT22;38827;53.024;6.596;2023-03-01T00:01:28;0.90;73.90
52963;DHT22;38827;53.024;6.596;2023-03-01T00:03:55;0.90;74.20
52963;DHT22;38827;53.024;6.596;2023-03-01T00:06:22;0.80;74.40
52963;DHT22;38827;53.024;6.596;2023-03-01T00:08:48;0.80;74.40
52963;DHT22;38827;53.024;6.596;2023-03-01T00:11:15;0.70;74.60
52963;DHT22;38827;53.024;6.596;2023-03-01T00:13:51;0.70;74.60
52963;DHT22;38827;53.024;6.596;2023-03-01T00:16:21;0.70;75.20
52963;DHT22;38827;53.024;6.596;2023-03-01T00:18:47;0.60;75.40
52963;DHT22;38827;53.024;6.596;2023-03-01T00:21:13;0.60;75.30
52963;DHT22;38827;53.024;6.596;2023-03-01T00:23:39;0.60;75.10
52963;DHT22;38827;53.024;6.596;2023-03-01T00:26:07;0.60;75.00
52963;DHT22;38827;53.024;6.596;2023-03-01T00:28:33;0.60;75.00
52963;DHT22;38827;53.024;6.596;2023-03-01T00:31:07;0.60;75.00
52963;DHT22;38827;53.024;6.596;2023-03-01T00:33:33;0.60;75.10
52963;DHT22;38827;53.024;6.596;2023-03-01T00:35:59;0.50;74.90
52963;DHT22;38827;53.024;6.596;2023-03-01T00:38:25;0.50;75.00
52963;DHT22;38827;53.024;6.596;2023-03-01T00:40:54;0.50;75.00
52963;DHT22;38827;53.024;6.596;2023-03-01T00:43:20;0.50;75.40
52963;DHT22;38827;53.024;6.596;2023-03-01T00:45:45;0.50;75.40
52963;DHT22;38827;53.024;6.596;2023-03-01T00:48:11;0.50;75.50
52963;DHT22;38827;53.024;6.596;2023-03-01T00:50:37;0.50;75.80
52963;DHT22;38827;53.024;6.596;2023-03-01T00:53:02;0.50;75.80
52963;DHT22;38827;53.024;6.596;2023-03-01T00:55:28;0.50;75.90
52963;DHT22;38827;53.024;6.596;2023-03-01T00:57:54;0.50;75.90
52963;DHT22;38827;53.024;6.596;2023-03-01T01:00:22;0.50;76.00
52963;DHT22;38827;53.024;6.596;2023-03-01T01:02:51;0.50;76.10
52963;DHT22;38827;53.024;6.596;2023-03-01T01:05:23;0.50;76.10
52963;DHT22;38827;53.024;6.596;2023-03-01T01:07:52;0.50;76.30
52963;DHT22;38827;53.024;6.596;2023-03-01T01:10:21;0.40;76.30
52963;DHT22;38827;53.024;6.596;2023-03-01T01:13:03;0.40;76.50
52963;DHT22;38827;53.024;6.596;2023-03-01T01:15:36;0.40;76.50
52963;DHT22;38827;53.024;6.596;2023-03-01T01:18:05;0.40;76.60
52963;DHT22;38827;53.024;6.596;2023-03-01T01:20:37;0.40;76.70
52963;DHT22;38827;53.024;6.596;2023-03-01T01:23:18;0.30;76.70
52963;DHT22;38827;53.024;6.596;2023-03-01T01:26:06;0.30;76.80
52963;DHT22;38827;53.024;6.596;2023-03-01T01:28:35;0.30;76.90
52963;DHT22;38827;53.024;6.596;2023-03-01T01:31:30;0.20;77.00
52963;DHT22;38827;53.024;6.596;2023-03-01T01:34:03;0.20;77.20
52963;DHT22;38827;53.024;6.596;2023-03-01T01:36:55;0.20;77.20
52963;DHT22;38827;53.024;6.596;2023-03-01T01:39:26;0.20;77.20
52963;DHT22;38827;53.024;6.596;2023-03-01T01:41:51;0.10;77.30
52963;DHT22;38827;53.024;6.596;2023-03-01T01:44:23;0.10;77.10
52963;DHT22;38827;53.024;6.596;2023-03-01T01:46:57;0.10;77.20
52963;DHT22;38827;53.024;6.596;2023-03-01T01:49:29;0.00;77.40
52963;DHT22;38827;53.024;6.596;2023-03-01T01:57:14;-0.10;77.70
52963;DHT22;38827;53.024;6.596;2023-03-01T01:59:44;-0.10;77.70
52963;DHT22;38827;53.024;6.596;2023-03-01T02:02:11;-0.20;77.60
52963;DHT22;38827;53.024;6.596;2023-03-01T02:04:38;-0.30;77.50
52963;DHT22;38827;53.024;6.596;2023-03-01T02:07:33;-0.30;77.60
52963;DHT22;38827;53.024;6.596;2023-03-01T02:10:11;-0.30;77.50
52963;DHT22;38827;53.024;6.596;2023-03-01T02:12:42;-0.40;77.40
52963;DHT22;38827;53.024;6.596;2023-03-01T02:15:16;-0.40;77.50
52963;DHT22;38827;53.024;6.596;2023-03-01T02:17:47;-0.40;77.50
52963;DHT22;38827;53.024;6.596;2023-03-01T02:22:56;-0.40;77.70
52963;DHT22;38827;53.024;6.596;2023-03-01T02:30:53;-0.40;77.80
52963;DHT22;38827;53.024;6.596;2023-03-01T02:33:39;-0.40;78.00
52963;DHT22;38827;53.024;6.596;2023-03-01T02:36:06;-0.50;77.90
52963;DHT22;38827;53.024;6.596;2023-03-01T02:38:32;-0.50;78.00
52963;DHT22;38827;53.024;6.596;2023-03-01T02:41:08;-0.50;78.10
52963;DHT22;38827;53.024;6.596;2023-03-01T02:43:36;-0.60;78.10
52963;DHT22;38827;53.024;6.596;2023-03-01T02:46:06;-0.50;78.10
52963;DHT22;38827;53.024;6.596;2023-03-01T02:48:52;-0.50;78.30
52963;DHT22;38827;53.024;6.596;2023-03-01T02:53:51;-0.50;78.30
52963;DHT22;38827;53.024;6.596;2023-03-01T02:56:20;-0.50;78.10
52963;DHT22;38827;53.024;6.596;2023-03-01T02:58:46;-0.60;78.20
52963;DHT22;38827;53.024;6.596;2023-03-01T03:01:17;-0.60;78.60
52963;DHT22;38827;53.024;6.596;2023-03-01T03:03:46;-0.60;78.80
52963;DHT22;38827;53.024;6.596;2023-03-01T03:06:15;-0.60;79.00
52963;DHT22;38827;53.024;6.596;2023-03-01T03:08:41;-0.60;78.90
52963;DHT22;38827;53.024;6.596;2023-03-01T03:11:07;-0.60;78.80
52963;DHT22;38827;53.024;6.596;2023-03-01T03:13:32;-0.70;78.90
52963;DHT22;38827;53.024;6.596;2023-03-01T03:15:58;-0.70;78.80
52963;DHT22;38827;53.024;6.596;2023-03-01T03:18:24;-0.70;78.80
52963;DHT22;38827;53.024;6.596;2023-03-01T03:20:53;-0.80;78.80
52963;DHT22;38827;53.024;6.596;2023-03-01T03:23:21;-0.70;78.80
52963;DHT22;38827;53.024;6.596;2023-03-01T03:25:49;-0.80;78.60
52963;DHT22;38827;53.024;6.596;2023-03-01T03:28:15;-0.90;78.70
52963;DHT22;38827;53.024;6.596;2023-03-01T03:30:42;-0.90;78.80
52963;DHT22;38827;53.024;6.596;2023-03-01T03:33:09;-0.90;78.70
52963;DHT22;38827;53.024;6.596;2023-03-01T03:35:44;-1.00;78.70
52963;DHT22;38827;53.024;6.596;2023-03-01T03:38:11;-1.00;78.70
52963;DHT22;38827;53.024;6.596;2023-03-01T03:41:07;-1.10;78.60
52963;DHT22;38827;53.024;6.596;2023-03-01T03:43:36;-1.10;78.40
52963;DHT22;38827;53.024;6.596;2023-03-01T03:46:03;-1.20;78.50
52963;DHT22;38827;53.024;6.596;2023-03-01T03:48:37;-1.20;78.50
52963;DHT22;38827;53.024;6.596;2023-03-01T03:51:27;-1.20;78.60
52963;DHT22;38827;53.024;6.596;2023-03-01T03:53:59;-1.30;78.30
52963;DHT22;38827;53.024;6.596;2023-03-01T03:56:34;-1.30;78.50
52963;DHT22;38827;53.024;6.596;2023-03-01T03:59:05;-1.40;78.30
52963;DHT22;38827;53.024;6.596;2023-03-01T04:01:39;-1.40;78.20
52963;DHT22;38827;53.024;6.596;2023-03-01T04:07:25;-1.50;78.20
52963;DHT22;38827;53.024;6.596;2023-03-01T04:09:55;-1.50;78.30
52963;DHT22;38827;53.024;6.596;2023-03-01T04:12:34;-1.50;78.20
52963;DHT22;38827;53.024;6.596;2023-03-01T04:15:06;-1.50;78.20
52963;DHT22;38827;53.024;6.596;2023-03-01T04:17:46;-1.60;78.20
52963;DHT22;38827;53.024;6.596;2023-03-01T04:20:17;-1.60;78.10
52963;DHT22;38827;53.024;6.596;2023-03-01T04:22:44;-1.60;78.10
52963;DHT22;38827;53.024;6.596;2023-03-01T04:25:13;-1.70;78.30
52963;DHT22;38827;53.024;6.596;2023-03-01T04:27:40;-1.70;78.20
52963;DHT22;38827;53.024;6.596;2023-03-01T04:30:07;-1.70;78.20
52963;DHT22;38827;53.024;6.596;2023-03-01T04:32:33;-1.70;78.20
52963;DHT22;38827;53.024;6.596;2023-03-01T04:35:00;-1.80;78.30
52963;DHT22;38827;53.024;6.596;2023-03-01T04:37:26;-1.80;78.20
52963;DHT22;38827;53.024;6.596;2023-03-01T04:39:52;-1.80;78.00
52963;DHT22;38827;53.024;6.596;2023-03-01T04:42:18;-1.80;78.20
52963;DHT22;38827;53.024;6.596;2023-03-01T04:44:44;-1.80;78.30
52963;DHT22;38827;53.024;6.596;2023-03-01T04:47:10;-1.80;78.30
52963;DHT22;38827;53.024;6.596;2023-03-01T04:49:43;-1.80;78.30
52963;DHT22;38827;53.024;6.596;2023-03-01T04:52:11;-1.80;78.30
52963;DHT22;38827;53.024;6.596;2023-03-01T04:55:05;-1.80;78.40
52963;DHT22;38827;53.024;6.596;2023-03-01T04:57:34;-1.90;78.20
52963;DHT22;38827;53.024;6.596;2023-03-01T05:00:00;-1.90;78.20
52963;DHT22;38827;53.024;6.596;2023-03-01T05:02:25;-1.90;78.20
52963;DHT22;38827;53.024;6.596;2023-03-01T05:04:51;-2.00;78.30
52963;DHT22;38827;53.024;6.596;2023-03-01T05:07:17;-2.00;78.30
52963;DHT22;38827;53.024;6.596;2023-03-01T05:09:48;-2.00;78.30
52963;DHT22;38827;53.024;6.596;2023-03-01T05:12:15;-2.10;78.60
52963;DHT22;38827;53.024;6.596;2023-03-01T05:14:41;-2.10;78.70
52963;DHT22;38827;53.024;6.596;2023-03-01T05:17:07;-2.10;78.80
52963;DHT22;38827;53.024;6.596;2023-03-01T05:19:33;-2.10;78.90
52963;DHT22;38827;53.024;6.596;2023-03-01T05:21:59;-2.10;79.10
52963;DHT22;38827;53.024;6.596;2023-03-01T05:24:30;-2.10;79.30
52963;DHT22;38827;53.024;6.596;2023-03-01T05:26:56;-2.10;79.10
52963;DHT22;38827;53.024;6.596;2023-03-01T05:29:23;-2.10;79.00
52963;DHT22;38827;53.024;6.596;2023-03-01T05:31:59;-2.10;78.90
52963;DHT22;38827;53.024;6.596;2023-03-01T05:34:31;-2.10;78.90
52963;DHT22;38827;53.024;6.596;2023-03-01T05:36:57;-2.10;78.90
52963;DHT22;38827;53.024;6.596;2023-03-01T05:39:25;-2.10;78.80
52963;DHT22;38827;53.024;6.596;2023-03-01T05:42:01;-2.20;78.80
52963;DHT22;38827;53.024;6.596;2023-03-01T05:44:28;-2.10;78.90
52963;DHT22;38827;53.024;6.596;2023-03-01T05:46:54;-2.20;78.80
52963;DHT22;38827;53.024;6.596;2023-03-01T05:49:20;-2.20;78.70
52963;DHT22;38827;53.024;6.596;2023-03-01T05:51:51;-2.20;78.60
52963;DHT22;38827;53.024;6.596;2023-03-01T05:54:17;-2.30;78.50
52963;DHT22;38827;53.024;6.596;2023-03-01T05:56:44;-2.30;78.50
52963;DHT22;38827;53.024;6.596;2023-03-01T05:59:10;-2.30;78.50
52963;DHT22;38827;53.024;6.596;2023-03-01T06:01:36;-2.30;78.30
52963;DHT22;38827;53.024;6.596;2023-03-01T06:04:03;-2.30;78.20
52963;DHT22;38827;53.024;6.596;2023-03-01T06:06:29;-2.30;78.20
52963;DHT22;38827;53.024;6.596;2023-03-01T06:08:58;-2.40;78.10
52963;DHT22;38827;53.024;6.596;2023-03-01T06:11:24;-2.40;78.30
52963;DHT22;38827;53.024;6.596;2023-03-01T06:13:52;-2.40;78.10
52963;DHT22;38827;53.024;6.596;2023-03-01T06:16:19;-2.40;78.20
52963;DHT22;38827;53.024;6.596;2023-03-01T06:18:45;-2.40;78.20
52963;DHT22;38827;53.024;6.596;2023-03-01T06:21:12;-2.40;78.30
52963;DHT22;38827;53.024;6.596;2023-03-01T06:23:37;-2.40;78.10
52963;DHT22;38827;53.024;6.596;2023-03-01T06:26:08;-2.40;78.20
52963;DHT22;38827;53.024;6.596;2023-03-01T06:28:35;-2.40;78.30
52963;DHT22;38827;53.024;6.596;2023-03-01T06:31:01;-2.40;78.40
52963;DHT22;38827;53.024;6.596;2023-03-01T06:33:26;-2.40;78.10
52963;DHT22;38827;53.024;6.596;2023-03-01T06:35:55;-2.30;78.10
52963;DHT22;38827;53.024;6.596;2023-03-01T06:38:23;-2.30;78.00
52963;DHT22;38827;53.024;6.596;2023-03-01T06:40:53;-2.30;78.10
52963;DHT22;38827;53.024;6.596;2023-03-01T06:43:20;-2.30;78.00
52963;DHT22;38827;53.024;6.596;2023-03-01T06:45:45;-2.30;78.10
52963;DHT22;38827;53.024;6.596;2023-03-01T06:48:11;-2.30;78.00
52963;DHT22;38827;53.024;6.596;2023-03-01T06:50:37;-2.20;78.20
52963;DHT22;38827;53.024;6.596;2023-03-01T06:53:04;-2.20;78.20
52963;DHT22;38827;53.024;6.596;2023-03-01T06:55:29;-2.10;78.30
52963;DHT22;38827;53.024;6.596;2023-03-01T06:57:58;-2.10;78.30
52963;DHT22;38827;53.024;6.596;2023-03-01T07:00:28;-2.00;78.30
52963;DHT22;38827;53.024;6.596;2023-03-01T07:03:11;-1.90;78.20
52963;DHT22;38827;53.024;6.596;2023-03-01T07:05:49;-1.70;78.30
52963;DHT22;38827;53.024;6.596;2023-03-01T07:08:15;-1.50;78.50
52963;DHT22;38827;53.024;6.596;2023-03-01T07:10:40;-1.20;78.20
52963;DHT22;38827;53.024;6.596;2023-03-01T07:13:06;-0.80;77.50
52963;DHT22;38827;53.024;6.596;2023-03-01T07:15:32;-0.40;76.70
52963;DHT22;38827;53.024;6.596;2023-03-01T07:17:58;0.10;75.90
52963;DHT22;38827;53.024;6.596;2023-03-01T07:20:24;0.50;74.80
52963;DHT22;38827;53.024;6.596;2023-03-01T07:22:51;1.00;73.60
52963;DHT22;38827;53.024;6.596;2023-03-01T07:25:17;1.50;72.50
52963;DHT22;38827;53.024;6.596;2023-03-01T07:27:43;2.10;71.20
52963;DHT22;38827;53.024;6.596;2023-03-01T07:30:09;2.60;69.70
52963;DHT22;38827;53.024;6.596;2023-03-01T07:32:35;3.10;68.30
52963;DHT22;38827;53.024;6.596;2023-03-01T07:35:01;3.70;66.90
52963;DHT22;38827;53.024;6.596;2023-03-01T07:37:29;4.20;65.60
52963;DHT22;38827;53.024;6.596;2023-03-01T07:39:55;4.80;64.30
52963;DHT22;38827;53.024;6.596;2023-03-01T07:42:20;5.40;63.10
52963;DHT22;38827;53.024;6.596;2023-03-01T07:44:46;6.00;61.50
52963;DHT22;38827;53.024;6.596;2023-03-01T07:47:14;6.50;60.10
52963;DHT22;38827;53.024;6.596;2023-03-01T07:49:40;7.00;58.80
52963;DHT22;38827;53.024;6.596;2023-03-01T07:52:17;7.50;57.80
52963;DHT22;38827;53.024;6.596;2023-03-01T07:54:43;7.90;56.60
52963;DHT22;38827;53.024;6.596;2023-03-01T07:57:15;8.30;56.30
52963;DHT22;38827;53.024;6.596;2023-03-01T07:59:40;8.70;55.40
52963;DHT22;38827;53.024;6.596;2023-03-01T08:02:07;9.00;54.60
52963;DHT22;38827;53.024;6.596;2023-03-01T08:04:33;9.40;53.90
52963;DHT22;38827;53.024;6.596;2023-03-01T08:06:59;9.80;53.20
52963;DHT22;38827;53.024;6.596;2023-03-01T08:09:25;10.20;52.40
52963;DHT22;38827;53.024;6.596;2023-03-01T08:11:50;10.60;51.90
52963;DHT22;38827;53.024;6.596;2023-03-01T08:14:16;11.00;51.30
52963;DHT22;38827;53.024;6.596;2023-03-01T08:16:42;11.30;50.30
52963;DHT22;38827;53.024;6.596;2023-03-01T08:19:10;11.70;49.80
52963;DHT22;38827;53.024;6.596;2023-03-01T08:21:36;11.90;49.20
52963;DHT22;38827;53.024;6.596;2023-03-01T08:24:04;12.00;49.10
52963;DHT22;38827;53.024;6.596;2023-03-01T08:26:31;12.30;48.70
52963;DHT22;38827;53.024;6.596;2023-03-01T08:28:57;12.70;48.20
52963;DHT22;38827;53.024;6.596;2023-03-01T08:31:55;13.10;47.30
52963;DHT22;38827;53.024;6.596;2023-03-01T08:34:23;13.50;46.60
52963;DHT22;38827;53.024;6.596;2023-03-01T08:37:02;13.60;46.50
52963;DHT22;38827;53.024;6.596;2023-03-01T08:40:03;13.80;45.80
52963;DHT22;38827;53.024;6.596;2023-03-01T08:42:45;14.00;45.40
52963;DHT22;38827;53.024;6.596;2023-03-01T08:45:20;14.20;45.00
52963;DHT22;38827;53.024;6.596;2023-03-01T08:47:46;14.50;44.60
52963;DHT22;38827;53.024;6.596;2023-03-01T08:50:14;14.70;44.60
52963;DHT22;38827;53.024;6.596;2023-03-01T08:52:43;15.00;44.10
52963;DHT22;38827;53.024;6.596;2023-03-01T08:55:11;15.30;43.70
52963;DHT22;38827;53.024;6.596;2023-03-01T08:57:37;15.60;43.20
52963;DHT22;38827;53.024;6.596;2023-03-01T09:00:34;15.80;42.70
52963;DHT22;38827;53.024;6.596;2023-03-01T09:03:00;16.20;42.20
52963;DHT22;38827;53.024;6.596;2023-03-01T09:06:01;16.40;42.00
52963;DHT22;38827;53.024;6.596;2023-03-01T09:08:50;16.80;40.70
52963;DHT22;38827;53.024;6.596;2023-03-01T09:11:21;17.00;41.20
52963;DHT22;38827;53.024;6.596;2023-03-01T09:13:49;17.20;40.70
52963;DHT22;38827;53.024;6.596;2023-03-01T09:18:58;17.60;40.20
52963;DHT22;38827;53.024;6.596;2023-03-01T09:21:23;17.90;40.10
52963;DHT22;38827;53.024;6.596;2023-03-01T09:23:49;18.10;39.60
52963;DHT22;38827;53.024;6.596;2023-03-01T09:26:21;18.20;39.40
52963;DHT22;38827;53.024;6.596;2023-03-01T09:29:23;18.20;39.20
52963;DHT22;38827;53.024;6.596;2023-03-01T09:32:00;18.30;38.80
52963;DHT22;38827;53.024;6.596;2023-03-01T09:34:33;18.50;38.50
52963;DHT22;38827;53.024;6.596;2023-03-01T09:40:03;19.20;37.70
52963;DHT22;38827;53.024;6.596;2023-03-01T09:42:35;19.50;37.00
52963;DHT22;38827;53.024;6.596;2023-03-01T09:45:06;19.90;36.70
52963;DHT22;38827;53.024;6.596;2023-03-01T09:47:36;20.20;36.20
52963;DHT22;38827;53.024;6.596;2023-03-01T09:50:23;20.00;36.40
52963;DHT22;38827;53.024;6.596;2023-03-01T09:58:54;20.70;35.60
52963;DHT22;38827;53.024;6.596;2023-03-01T10:09:48;21.70;33.40
52963;DHT22;38827;53.024;6.596;2023-03-01T10:12:22;21.50;32.80
52963;DHT22;38827;53.024;6.596;2023-03-01T10:15:02;21.40;32.70
52963;DHT22;38827;53.024;6.596;2023-03-01T10:20:20;21.60;32.50
52963;DHT22;38827;53.024;6.596;2023-03-01T10:22:46;21.70;31.80
52963;DHT22;38827;53.024;6.596;2023-03-01T10:30:57;22.00;31.70
52963;DHT22;38827;53.024;6.596;2023-03-01T10:33:51;22.00;31.10
52963;DHT22;38827;53.024;6.596;2023-03-01T10:36:28;21.90;30.80
52963;DHT22;38827;53.024;6.596;2023-03-01T10:39:05;21.90;30.90
52963;DHT22;38827;53.024;6.596;2023-03-01T10:51:27;21.60;30.30
52963;DHT22;38827;53.024;6.596;2023-03-01T10:54:14;21.40;29.90
52963;DHT22;38827;53.024;6.596;2023-03-01T10:57:29;21.40;30.00
52963;DHT22;38827;53.024;6.596;2023-03-01T11:00:19;21.50;30.10
52963;DHT22;38827;53.024;6.596;2023-03-01T11:05:20;21.80;29.10
52963;DHT22;38827;53.024;6.596;2023-03-01T11:10:33;21.80;28.50
52963;DHT22;38827;53.024;6.596;2023-03-01T11:13:26;21.80;28.60
52963;DHT22;38827;53.024;6.596;2023-03-01T11:16:04;21.90;28.30
52963;DHT22;38827;53.024;6.596;2023-03-01T11:18:31;21.80;28.30
52963;DHT22;38827;53.024;6.596;2023-03-01T11:20:59;21.70;28.20
52963;DHT22;38827;53.024;6.596;2023-03-01T11:23:31;21.40;28.60
52963;DHT22;38827;53.024;6.596;2023-03-01T11:26:07;21.20;28.60
52963;DHT22;38827;53.024;6.596;2023-03-01T11:28:56;21.20;29.10
52963;DHT22;38827;53.024;6.596;2023-03-01T11:31:55;21.20;29.10
52963;DHT22;38827;53.024;6.596;2023-03-01T11:35:05;21.40;29.00
52963;DHT22;38827;53.024;6.596;2023-03-01T11:43:36;21.30;29.50
52963;DHT22;38827;53.024;6.596;2023-03-01T11:50:13;21.60;29.30
52963;DHT22;38827;53.024;6.596;2023-03-01T11:53:06;21.80;29.30
52963;DHT22;38827;53.024;6.596;2023-03-01T11:56:00;21.80;29.20
52963;DHT22;38827;53.024;6.596;2023-03-01T12:08:56;15.50;34.10
52963;DHT22;38827;53.024;6.596;2023-03-01T12:26:31;16.70;33.90
52963;DHT22;38827;53.024;6.596;2023-03-01T12:34:59;18.90;32.00
52963;DHT22;38827;53.024;6.596;2023-03-01T12:37:56;19.30;31.60
52963;DHT22;38827;53.024;6.596;2023-03-01T12:43:27;20.30;30.70
52963;DHT22;38827;53.024;6.596;2023-03-01T12:51:33;20.90;30.10
52963;DHT22;38827;53.024;6.596;2023-03-01T12:54:05;21.00;29.90
52963;DHT22;38827;53.024;6.596;2023-03-01T12:56:42;20.90;29.60
52963;DHT22;38827;53.024;6.596;2023-03-01T13:05:26;20.80;29.40
52963;DHT22;38827;53.024;6.596;2023-03-01T13:11:00;20.60;30.50
52963;DHT22;38827;53.024;6.596;2023-03-01T13:19:28;21.40;30.00
52963;DHT22;38827;53.024;6.596;2023-03-01T13:22:31;21.40;29.90
52963;DHT22;38827;53.024;6.596;2023-03-01T13:25:17;21.30;29.80
52963;DHT22;38827;53.024;6.596;2023-03-01T13:27:47;21.10;29.80
52963;DHT22;38827;53.024;6.596;2023-03-01T13:33:39;20.30;30.60
52963;DHT22;38827;53.024;6.596;2023-03-01T13:36:10;20.20;30.80
52963;DHT22;38827;53.024;6.596;2023-03-01T13:39:30;20.10;30.80
52963;DHT22;38827;53.024;6.596;2023-03-01T13:42:01;20.10;31.00
52963;DHT22;38827;53.024;6.596;2023-03-01T13:44:47;20.10;31.30
52963;DHT22;38827;53.024;6.596;2023-03-01T13:47:32;20.50;30.40
52963;DHT22;38827;53.024;6.596;2023-03-01T13:50:28;20.40;30.50
52963;DHT22;38827;53.024;6.596;2023-03-01T13:53:11;20.70;30.50
52963;DHT22;38827;53.024;6.596;2023-03-01T13:58:20;21.00;30.00
52963;DHT22;38827;53.024;6.596;2023-03-01T14:03:51;20.50;30.00
52963;DHT22;38827;53.024;6.596;2023-03-01T14:14:54;19.80;31.00
52963;DHT22;38827;53.024;6.596;2023-03-01T14:21:08;19.30;31.40
52963;DHT22;38827;53.024;6.596;2023-03-01T14:29:47;18.90;32.00
52963;DHT22;38827;53.024;6.596;2023-03-01T14:32:31;19.10;31.40
52963;DHT22;38827;53.024;6.596;2023-03-01T14:35:02;18.90;31.60
52963;DHT22;38827;53.024;6.596;2023-03-01T14:37:40;18.90;31.40
52963;DHT22;38827;53.024;6.596;2023-03-01T14:45:32;18.40;31.80
52963;DHT22;38827;53.024;6.596;2023-03-01T14:48:12;18.40;31.60
52963;DHT22;38827;53.024;6.596;2023-03-01T14:53:11;18.60;31.80
52963;DHT22;38827;53.024;6.596;2023-03-01T15:04:49;18.50;32.20
52963;DHT22;38827;53.024;6.596;2023-03-01T15:07:29;18.30;32.70
52963;DHT22;38827;53.024;6.596;2023-03-01T15:10:11;17.90;33.00
52963;DHT22;38827;53.024;6.596;2023-03-01T15:12:49;17.70;33.40
52963;DHT22;38827;53.024;6.596;2023-03-01T15:18:31;16.90;34.50
52963;DHT22;38827;53.024;6.596;2023-03-01T15:21:19;16.40;35.00
52963;DHT22;38827;53.024;6.596;2023-03-01T15:26:42;15.80;36.10
52963;DHT22;38827;53.024;6.596;2023-03-01T15:32:44;14.80;37.80
52963;DHT22;38827;53.024;6.596;2023-03-01T15:35:45;14.20;38.30
52963;DHT22;38827;53.024;6.596;2023-03-01T15:38:49;13.80;39.50
52963;DHT22;38827;53.024;6.596;2023-03-01T15:41:37;13.40;40.10
52963;DHT22;38827;53.024;6.596;2023-03-01T15:44:38;13.40;40.20
52963;DHT22;38827;53.024;6.596;2023-03-01T15:47:26;13.30;40.50
52963;DHT22;38827;53.024;6.596;2023-03-01T15:49:53;13.20;40.90
52963;DHT22;38827;53.024;6.596;2023-03-01T15:52:26;12.90;40.60
52963;DHT22;38827;53.024;6.596;2023-03-01T15:55:03;12.80;41.30
52963;DHT22;38827;53.024;6.596;2023-03-01T15:57:29;12.50;41.60
52963;DHT22;38827;53.024;6.596;2023-03-01T15:59:56;12.20;42.10
52963;DHT22;38827;53.024;6.596;2023-03-01T16:02:23;11.80;42.80
52963;DHT22;38827;53.024;6.596;2023-03-01T16:04:50;11.60;43.30
52963;DHT22;38827;53.024;6.596;2023-03-01T16:07:19;11.40;43.90
52963;DHT22;38827;53.024;6.596;2023-03-01T16:09:57;11.20;44.40
52963;DHT22;38827;53.024;6.596;2023-03-01T16:12:32;11.00;45.30
52963;DHT22;38827;53.024;6.596;2023-03-01T16:15:20;10.90;45.60
52963;DHT22;38827;53.024;6.596;2023-03-01T16:17:54;10.70;45.80
52963;DHT22;38827;53.024;6.596;2023-03-01T16:20:29;10.50;45.90
52963;DHT22;38827;53.024;6.596;2023-03-01T16:23:23;10.30;46.40
52963;DHT22;38827;53.024;6.596;2023-03-01T16:25:55;10.10;47.10
52963;DHT22;38827;53.024;6.596;2023-03-01T16:28:32;9.80;47.90
52963;DHT22;38827;53.024;6.596;2023-03-01T16:31:10;9.60;48.60
52963;DHT22;38827;53.024;6.596;2023-03-01T16:33:46;9.40;49.00
52963;DHT22;38827;53.024;6.596;2023-03-01T16:36:31;9.20;49.40
52963;DHT22;38827;53.024;6.596;2023-03-01T16:39:21;9.10;50.10
52963;DHT22;38827;53.024;6.596;2023-03-01T16:41:58;9.00;50.80
52963;DHT22;38827;53.024;6.596;2023-03-01T16:44:27;8.80;50.80
52963;DHT22;38827;53.024;6.596;2023-03-01T16:47:15;8.70;51.00
52963;DHT22;38827;53.024;6.596;2023-03-01T16:49:44;8.60;51.50
52963;DHT22;38827;53.024;6.596;2023-03-01T16:52:30;8.60;51.60
52963;DHT22;38827;53.024;6.596;2023-03-01T16:57:40;8.40;52.20
52963;DHT22;38827;53.024;6.596;2023-03-01T17:00:15;8.30;52.80
52963;DHT22;38827;53.024;6.596;2023-03-01T17:02:52;8.10;53.40
52963;DHT22;38827;53.024;6.596;2023-03-01T17:05:47;8.00;53.40
52963;DHT22;38827;53.024;6.596;2023-03-01T17:14:28;7.60;54.60
52963;DHT22;38827;53.024;6.596;2023-03-01T17:17:08;7.60;55.00
52963;DHT22;38827;53.024;6.596;2023-03-01T17:19:37;7.50;55.50
52963;DHT22;38827;53.024;6.596;2023-03-01T17:22:32;7.40;55.60
52963;DHT22;38827;53.024;6.596;2023-03-01T17:25:06;7.30;56.30
52963;DHT22;38827;53.024;6.596;2023-03-01T17:27:51;7.20;56.20
52963;DHT22;38827;53.024;6.596;2023-03-01T17:32:45;7.00;56.90
52963;DHT22;38827;53.024;6.596;2023-03-01T17:35:11;7.00;57.10
52963;DHT22;38827;53.024;6.596;2023-03-01T17:40:50;6.90;57.60
52963;DHT22;38827;53.024;6.596;2023-03-01T17:43:19;6.80;57.70
52963;DHT22;38827;53.024;6.596;2023-03-01T17:45:47;6.70;58.10
52963;DHT22;38827;53.024;6.596;2023-03-01T17:48:24;6.60;58.20
52963;DHT22;38827;53.024;6.596;2023-03-01T17:50:57;6.60;58.50
52963;DHT22;38827;53.024;6.596;2023-03-01T17:53:28;6.50;59.00
52963;DHT22;38827;53.024;6.596;2023-03-01T17:56:01;6.40;59.10
52963;DHT22;38827;53.024;6.596;2023-03-01T17:58:36;6.40;59.50
52963;DHT22;38827;53.024;6.596;2023-03-01T18:01:28;6.30;59.70
52963;DHT22;38827;53.024;6.596;2023-03-01T18:03:53;6.20;60.20
52963;DHT22;38827;53.024;6.596;2023-03-01T18:09:25;6.10;60.40
52963;DHT22;38827;53.024;6.596;2023-03-01T18:12:00;6.10;60.60
52963;DHT22;38827;53.024;6.596;2023-03-01T18:14:30;6.00;61.00
52963;DHT22;38827;53.024;6.596;2023-03-01T18:17:23;6.00;61.20
52963;DHT22;38827;53.024;6.596;2023-03-01T18:20:08;5.90;62.00
52963;DHT22;38827;53.024;6.596;2023-03-01T18:22:38;5.90;62.10
52963;DHT22;38827;53.024;6.596;2023-03-01T18:25:10;5.80;62.10
52963;DHT22;38827;53.024;6.596;2023-03-01T18:27:54;5.80;62.30
52963;DHT22;38827;53.024;6.596;2023-03-01T18:30:20;5.70;63.10
52963;DHT22;38827;53.024;6.596;2023-03-01T18:32:48;5.70;63.60
52963;DHT22;38827;53.024;6.596;2023-03-01T18:38:49;5.50;64.90
52963;DHT22;38827;53.024;6.596;2023-03-01T18:41:34;5.40;65.00
52963;DHT22;38827;53.024;6.596;2023-03-01T18:47:49;5.30;66.40
52963;DHT22;38827;53.024;6.596;2023-03-01T18:54:03;5.10;67.10
52963;DHT22;38827;53.024;6.596;2023-03-01T19:00:13;5.00;68.00
52963;DHT22;38827;53.024;6.596;2023-03-01T19:02:45;4.90;67.90
52963;DHT22;38827;53.024;6.596;2023-03-01T19:05:16;4.80;68.20
52963;DHT22;38827;53.024;6.596;2023-03-01T19:07:57;4.80;68.50
52963;DHT22;38827;53.024;6.596;2023-03-01T19:10:40;4.70;68.90
52963;DHT22;38827;53.024;6.596;2023-03-01T19:13:08;4.70;69.70
52963;DHT22;38827;53.024;6.596;2023-03-01T19:15:39;4.60;69.70
52963;DHT22;38827;53.024;6.596;2023-03-01T19:18:10;4.60;69.70
52963;DHT22;38827;53.024;6.596;2023-03-01T19:20:36;4.50;70.00
52963;DHT22;38827;53.024;6.596;2023-03-01T19:23:09;4.50;70.20
52963;DHT22;38827;53.024;6.596;2023-03-01T19:25:35;4.40;70.70
52963;DHT22;38827;53.024;6.596;2023-03-01T19:28:13;4.30;70.60
52963;DHT22;38827;53.024;6.596;2023-03-01T19:30:40;4.30;71.00
52963;DHT22;38827;53.024;6.596;2023-03-01T19:33:19;4.20;70.80
52963;DHT22;38827;53.024;6.596;2023-03-01T19:36:09;4.10;71.40
52963;DHT22;38827;53.024;6.596;2023-03-01T19:38:44;4.10;71.80
52963;DHT22;38827;53.024;6.596;2023-03-01T19:41:24;4.00;72.00
52963;DHT22;38827;53.024;6.596;2023-03-01T19:44:17;3.90;72.40
52963;DHT22;38827;53.024;6.596;2023-03-01T19:57:53;3.60;73.40